Time;durP1;ratioP1;P1;durP2;ratioP2;P2;SDS_P1;SDS_P2;PMS_P1;PMS_P2;Temp;Humidity;BMP_temperature;BMP_pressure;BME280_temperature;BME280_humidity;BME280_pressure;Samples;Min_cycle;Max_cycle;Signal;HPM_P1;HPM_P2
2021/12/15 00:02:12;;;;;;;;;;;23.00;32.60;;;;;;5164264;27;19930;-54
2021/12/15 00:04:38;;;;;;;;;;;23.10;32.60;;;;;;5164867;27;19929;-55
2021/12/15 00:07:04;;;;;;;;;;;23.10;32.50;;;;;;5169984;27;19932;-54
2021/12/15 00:09:30;;;;;;;;;;;23.20;32.60;;;;;;5164574;27;19933;-56
2021/12/15 00:11:56;;;;;;;;;;;23.20;32.50;;;;;;5165333;27;19922;-58
2021/12/15 00:14:22;;;;;;;;;;;23.00;32.80;;;;;;5169910;27;19994;-56
2021/12/15 00:16:48;;;;;;;;;;;23.00;32.80;;;;;;5164184;27;19931;-52
2021/12/15 00:19:13;;;;;;;;;;;23.00;32.70;;;;;;5168032;27;20377;-59
2021/12/15 00:21:39;;;;;;;;;;;23.10;32.70;;;;;;5166538;27;20233;-57
2021/12/15 00:24:05;;;;;;;;;;;23.00;32.70;;;;;;5164148;27;19930;-52
2021/12/15 00:26:31;;;;;;;;;;;23.10;32.60;;;;;;5169454;27;19937;-53
2021/12/15 00:28:57;;;;;;;;;;;23.20;32.50;;;;;;5164420;27;19927;-58
2021/12/15 00:31:23;;;;;;;;;;;23.10;32.60;;;;;;5145508;27;19922;-54
2021/12/15 00:33:49;;;;;;;;;;;23.20;32.50;;;;;;5169660;27;19945;-64
2021/12/15 00:36:14;;;;;;;;;;;23.10;32.60;;;;;;5163653;27;20402;-58
2021/12/15 00:38:40;;;;;;;;;;;22.80;32.90;;;;;;5165024;27;19922;-57
2021/12/15 00:41:06;;;;;;;;;;;22.90;32.90;;;;;;5168288;27;19966;-55
2021/12/15 00:43:32;;;;;;;;;;;23.00;32.70;;;;;;5163812;27;19933;-54
2021/12/15 00:45:58;;;;;;;;;;;23.00;32.70;;;;;;5134027;27;19928;-54
2021/12/15 00:48:24;;;;;;;;;;;23.00;32.60;;;;;;5163715;27;20013;-56
2021/12/15 00:50:49;;;;;;;;;;;23.10;32.50;;;;;;5163528;27;19922;-49
2021/12/15 00:53:15;;;;;;;;;;;23.10;32.40;;;;;;5168870;27;19923;-49
2021/12/15 00:55:43;;;;;;;;;;;23.20;32.20;;;;;;5163665;27;19969;-60
2021/12/15 00:58:09;;;;;;;;;;;23.00;32.50;;;;;;5144898;27;19985;-57
2021/12/15 01:00:36;;;;;;;;;;;22.90;32.70;;;;;;5169135;27;19927;-55
2021/12/15 01:03:02;;;;;;;;;;;22.90;32.70;;;;;;5163536;27;19931;-56
2021/12/15 01:05:31;;;;;;;;;;;22.90;32.60;;;;;;5169021;27;20466;-54
2021/12/15 01:07:57;;;;;;;;;;;23.00;32.40;;;;;;5163517;27;20374;-54
2021/12/15 01:10:28;;;;;;;;;;;23.10;32.30;;;;;;5163436;27;20944;-51
2021/12/15 01:21:02;;;;;;;;;;;23.10;32.30;;;;;;5168635;27;20458;-51
2021/12/15 01:23:28;;;;;;;;;;;23.10;32.20;;;;;;5163188;27;19926;-58
2021/12/15 01:25:55;;;;;;;;;;;23.10;32.20;;;;;;5163257;27;20762;-53
2021/12/15 01:28:21;;;;;;;;;;;23.00;32.40;;;;;;5168355;27;19927;-57
2021/12/15 01:30:46;;;;;;;;;;;23.00;32.50;;;;;;5162836;27;19923;-48
2021/12/15 01:33:12;;;;;;;;;;;23.10;32.30;;;;;;5163279;27;20150;-59
2021/12/15 01:35:39;;;;;;;;;;;22.90;32.60;;;;;;5168330;27;19930;-54
2021/12/15 01:38:05;;;;;;;;;;;22.90;32.60;;;;;;5163240;27;19929;-55
2021/12/15 01:40:35;;;;;;;;;;;22.90;32.60;;;;;;5166804;27;20305;-58
2021/12/15 01:43:17;;;;;;;;;;;23.00;32.50;;;;;;5166467;27;20437;-54
2021/12/15 01:48:28;;;;;;;;;;;23.10;32.40;;;;;;5162743;27;19922;-61
2021/12/15 01:50:54;;;;;;;;;;;23.10;32.30;;;;;;5149028;27;19922;-56
2021/12/15 01:53:20;;;;;;;;;;;23.00;32.40;;;;;;5162237;27;19923;-54
2021/12/15 01:55:45;;;;;;;;;;;23.20;32.30;;;;;;5168175;27;19987;-55
2021/12/15 01:58:11;;;;;;;;;;;23.20;32.30;;;;;;5163344;27;19926;-58
2021/12/15 02:00:40;;;;;;;;;;;22.90;32.60;;;;;;5162759;27;19923;-55
2021/12/15 02:03:05;;;;;;;;;;;23.00;32.50;;;;;;5168058;27;20021;-54
2021/12/15 02:05:32;;;;;;;;;;;23.00;32.40;;;;;;5143875;27;19949;-50
2021/12/15 02:07:59;;;;;;;;;;;23.10;32.30;;;;;;5162436;27;20099;-58
2021/12/15 02:10:28;;;;;;;;;;;23.10;32.20;;;;;;5132025;27;20292;-53
2021/12/15 02:12:54;;;;;;;;;;;23.10;32.20;;;;;;5143684;27;19927;-60
2021/12/15 02:15:22;;;;;;;;;;;23.10;32.20;;;;;;5166943;27;19945;-59
2021/12/15 02:17:48;;;;;;;;;;;23.10;32.30;;;;;;5164923;27;19956;-57
2021/12/15 02:20:15;;;;;;;;;;;23.10;32.20;;;;;;5162513;27;19923;-50
2021/12/15 02:22:41;;;;;;;;;;;23.10;32.20;;;;;;5167485;27;19930;-50
2021/12/15 02:25:10;;;;;;;;;;;23.10;32.10;;;;;;5161956;27;19923;-59
2021/12/15 02:27:36;;;;;;;;;;;22.80;32.60;;;;;;5144037;27;20308;-57
2021/12/15 02:30:22;;;;;;;;;;;22.80;32.70;;;;;;5167097;27;19923;-55
2021/12/15 02:33:03;;;;;;;;;;;22.90;32.50;;;;;;5145743;27;20282;-56
2021/12/15 02:38:13;;;;;;;;;;;23.00;32.20;;;;;;5167577;27;19975;-52
2021/12/15 02:40:39;;;;;;;;;;;23.10;32.10;;;;;;5162219;27;20374;-54
2021/12/15 02:43:05;;;;;;;;;;;23.10;32.10;;;;;;5162080;27;20055;-56
2021/12/15 02:45:31;;;;;;;;;;;23.10;32.20;;;;;;5167111;27;20290;-55
2021/12/15 02:47:58;;;;;;;;;;;23.00;32.20;;;;;;5161581;27;19923;-57
2021/12/15 02:50:24;;;;;;;;;;;23.00;32.20;;;;;;5162283;27;20332;-55
2021/12/15 02:52:51;;;;;;;;;;;23.10;32.10;;;;;;5167958;27;20461;-58
2021/12/15 02:55:16;;;;;;;;;;;22.90;32.40;;;;;;5162232;27;20024;-57
2021/12/15 02:57:45;;;;;;;;;;;22.90;32.30;;;;;;5167561;27;20302;-55
2021/12/15 03:00:28;;;;;;;;;;;23.00;32.20;;;;;;5163705;27;19926;-53
2021/12/15 03:03:41;;;;;;;;;;;23.00;32.10;;;;;;5165683;27;19975;-52
2021/12/15 03:06:10;;;;;;;;;;;23.10;32.00;;;;;;5165859;27;19927;-56
2021/12/15 03:09:11;;;;;;;;;;;23.00;32.20;;;;;;5171156;27;19922;-54
2021/12/15 03:16:51;;;;;;;;;;;23.10;31.90;;;;;;5146032;27;19964;-59
2021/12/15 03:19:16;;;;;;;;;;;23.10;31.90;;;;;;5165726;27;19927;-54
2021/12/15 03:21:42;;;;;;;;;;;23.00;32.10;;;;;;5165084;27;20385;-53
2021/12/15 03:24:14;;;;;;;;;;;23.10;32.00;;;;;;5170440;27;19923;-54
2021/12/15 03:26:48;;;;;;;;;;;23.00;32.00;;;;;;5165385;27;20527;-55
2021/12/15 03:37:26;;;;;;;;;;;23.10;31.80;;;;;;5164891;27;19970;-53
2021/12/15 03:39:56;;;;;;;;;;;23.20;31.90;;;;;;5170350;27;20030;-54
2021/12/15 03:42:25;;;;;;;;;;;22.80;32.40;;;;;;5164993;27;19923;-54
2021/12/15 03:44:51;;;;;;;;;;;23.00;32.20;;;;;;5164824;27;20676;-57
2021/12/15 03:47:20;;;;;;;;;;;23.00;32.00;;;;;;5170658;27;19926;-52
2021/12/15 03:49:46;;;;;;;;;;;23.10;31.80;;;;;;5164862;27;20037;-55
2021/12/15 03:52:12;;;;;;;;;;;23.10;31.90;;;;;;5166805;27;19923;-58
2021/12/15 03:54:38;;;;;;;;;;;23.00;31.90;;;;;;5168633;27;19966;-53
2021/12/15 03:57:04;;;;;;;;;;;23.10;31.80;;;;;;5165141;27;20378;-59
2021/12/15 03:59:32;;;;;;;;;;;22.90;32.20;;;;;;5170210;27;20436;-58
2021/12/15 04:01:58;;;;;;;;;;;22.80;32.30;;;;;;5164092;27;19933;-55
2021/12/15 04:04:23;;;;;;;;;;;23.00;32.00;;;;;;5164943;27;19923;-52
2021/12/15 04:06:49;;;;;;;;;;;23.00;32.00;;;;;;5170240;27;19923;-53
2021/12/15 04:09:15;;;;;;;;;;;23.10;31.80;;;;;;5165011;27;19930;-55
2021/12/15 04:11:41;;;;;;;;;;;22.80;32.10;;;;;;5163956;27;20009;-58
2021/12/15 04:14:09;;;;;;;;;;;22.90;32.00;;;;;;5169848;27;20103;-55
2021/12/15 04:19:03;;;;;;;;;;;23.10;31.90;;;;;;5169839;27;20008;-55
2021/12/15 04:21:29;;;;;;;;;;;23.20;31.80;;;;;;5164046;27;19923;-60
2021/12/15 04:23:55;;;;;;;;;;;23.10;31.90;;;;;;5164613;27;19975;-55
2021/12/15 04:26:21;;;;;;;;;;;23.00;32.10;;;;;;5169706;27;19922;-55
2021/12/15 04:28:46;;;;;;;;;;;23.10;32.00;;;;;;5164370;27;20318;-55
2021/12/15 04:31:14;;;;;;;;;;;23.10;31.90;;;;;;5164567;27;20269;-62
2021/12/15 04:33:42;;;;;;;;;;;23.00;32.00;;;;;;5169590;27;19923;-57
2021/12/15 04:36:08;;;;;;;;;;;22.80;32.30;;;;;;5163884;27;19933;-55
2021/12/15 04:38:34;;;;;;;;;;;23.00;32.00;;;;;;5167569;27;19929;-57
2021/12/15 04:41:00;;;;;;;;;;;23.10;31.90;;;;;;5165556;27;20354;-53
2021/12/15 04:43:30;;;;;;;;;;;23.10;31.90;;;;;;5164076;27;20341;-57
2021/12/15 04:45:56;;;;;;;;;;;23.10;31.80;;;;;;5169500;27;20014;-55
2021/12/15 04:48:22;;;;;;;;;;;23.00;31.90;;;;;;5163999;27;19922;-55
2021/12/15 04:50:48;;;;;;;;;;;23.10;31.50;;;;;;5164352;27;20032;-55
2021/12/15 04:53:14;;;;;;;;;;;22.90;31.60;;;;;;5169256;27;20053;-58
2021/12/15 04:55:40;;;;;;;;;;;22.90;31.40;;;;;;5163656;27;19962;-54
2021/12/15 04:58:06;;;;;;;;;;;23.10;31.20;;;;;;5163284;27;19923;-53
2021/12/15 05:00:32;;;;;;;;;;;23.10;31.10;;;;;;5169234;27;19931;-52
2021/12/15 05:02:58;;;;;;;;;;;23.20;31.00;;;;;;5164283;27;20465;-57
2021/12/15 05:05:24;;;;;;;;;;;22.80;31.30;;;;;;5150594;27;20095;-56
2021/12/15 05:07:50;;;;;;;;;;;22.90;31.20;;;;;;5163434;27;20005;-55
2021/12/15 05:10:15;;;;;;;;;;;23.00;31.10;;;;;;5163386;27;19930;-55
2021/12/15 05:12:41;;;;;;;;;;;23.10;30.90;;;;;;5168403;27;20388;-50
2021/12/15 05:15:07;;;;;;;;;;;23.10;30.80;;;;;;5162986;27;20342;-56
2021/12/15 05:17:33;;;;;;;;;;;23.20;30.60;;;;;;5163689;27;20232;-55
2021/12/15 05:20:03;;;;;;;;;;;23.00;30.80;;;;;;5168935;27;20026;-52
2021/12/15 05:22:29;;;;;;;;;;;23.20;30.60;;;;;;5162672;27;20382;-51
2021/12/15 05:24:55;;;;;;;;;;;23.10;30.60;;;;;;5168109;27;19929;-60
2021/12/15 05:27:21;;;;;;;;;;;23.10;30.60;;;;;;5162953;27;19923;-52
2021/12/15 05:29:47;;;;;;;;;;;23.00;30.60;;;;;;5162926;27;19927;-55
2021/12/15 05:32:16;;;;;;;;;;;23.10;30.50;;;;;;5168153;27;19932;-58
2021/12/15 05:34:41;;;;;;;;;;;23.00;30.50;;;;;;5162447;27;20021;-56
2021/12/15 05:37:07;;;;;;;;;;;22.90;30.60;;;;;;5163189;27;19995;-55
2021/12/15 05:39:33;;;;;;;;;;;23.00;30.40;;;;;;5168284;27;19931;-52
2021/12/15 05:41:59;;;;;;;;;;;23.20;30.30;;;;;;5163721;27;20808;-57
2021/12/15 05:44:25;;;;;;;;;;;22.90;30.50;;;;;;5165857;27;20382;-58
2021/12/15 05:46:51;;;;;;;;;;;23.00;30.40;;;;;;5165678;27;20326;-54
2021/12/15 05:49:17;;;;;;;;;;;23.10;30.20;;;;;;5162643;27;19932;-56
2021/12/15 05:51:42;;;;;;;;;;;23.10;30.10;;;;;;5168444;27;19926;-52
2021/12/15 05:54:08;;;;;;;;;;;23.00;30.30;;;;;;5162488;27;19934;-54
2021/12/15 05:56:34;;;;;;;;;;;23.10;30.10;;;;;;5162739;27;19983;-55
2021/12/15 05:59:00;;;;;;;;;;;23.00;30.10;;;;;;5168054;27;20357;-56
2021/12/15 06:01:27;;;;;;;;;;;23.10;29.90;;;;;;5163163;27;20378;-63
2021/12/15 06:03:53;;;;;;;;;;;23.00;30.10;;;;;;5162797;27;19923;-56
2021/12/15 06:06:18;;;;;;;;;;;22.90;30.20;;;;;;5167746;27;20301;-56
2021/12/15 06:08:44;;;;;;;;;;;23.00;30.10;;;;;;5162319;27;19923;-56
2021/12/15 06:11:10;;;;;;;;;;;23.10;30.00;;;;;;5167354;27;19933;-54
2021/12/15 06:13:36;;;;;;;;;;;23.20;29.90;;;;;;5163365;27;19930;-56
2021/12/15 06:16:04;;;;;;;;;;;23.00;30.10;;;;;;5162567;27;19923;-55
2021/12/15 06:18:30;;;;;;;;;;;23.00;30.10;;;;;;5149486;27;20381;-52
2021/12/15 06:20:56;;;;;;;;;;;23.10;30.00;;;;;;5162220;27;19938;-54
2021/12/15 06:23:22;;;;;;;;;;;23.10;29.90;;;;;;5162076;27;19926;-59
2021/12/15 06:25:52;;;;;;;;;;;23.20;29.80;;;;;;5167885;27;20021;-57
2021/12/15 06:28:18;;;;;;;;;;;22.70;30.50;;;;;;5162204;27;20074;-58
2021/12/15 06:30:44;;;;;;;;;;;22.90;30.20;;;;;;5167461;27;19927;-55
2021/12/15 06:33:10;;;;;;;;;;;23.10;30.00;;;;;;5162651;27;20362;-57
2021/12/15 06:35:36;;;;;;;;;;;23.00;30.00;;;;;;5164737;27;19922;-54
2021/12/15 06:38:02;;;;;;;;;;;23.10;29.90;;;;;;5171992;27;20343;-55
2021/12/15 06:40:28;;;;;;;;;;;23.20;29.80;;;;;;5166578;27;19933;-58
2021/12/15 06:42:54;;;;;;;;;;;23.10;29.90;;;;;;5166227;27;20325;-56
2021/12/15 06:45:24;;;;;;;;;;;23.10;30.00;;;;;;5171403;27;19927;-53
2021/12/15 06:58:48;;;;;;;;;;;23.00;30.20;;;;;;5166307;27;19983;-54
2021/12/15 07:01:14;;;;;;;;;;;23.00;30.10;;;;;;5171232;27;19930;-55
2021/12/15 07:03:40;;;;;;;;;;;23.10;30.00;;;;;;5165783;27;20030;-58
2021/12/15 07:06:06;;;;;;;;;;;23.00;30.10;;;;;;5165842;27;20176;-56
2021/12/15 07:08:32;;;;;;;;;;;23.10;30.00;;;;;;5171235;27;19991;-55
2021/12/15 07:10:58;;;;;;;;;;;23.20;30.00;;;;;;5166531;27;19937;-61
2021/12/15 07:13:27;;;;;;;;;;;23.10;30.00;;;;;;5169913;27;19923;-60
2021/12/15 07:15:59;;;;;;;;;;;22.90;30.30;;;;;;5168808;27;19998;-55
2021/12/15 07:18:38;;;;;;;;;;;23.00;30.10;;;;;;5181046;27;19923;-52
2021/12/15 07:21:07;;;;;;;;;;;23.10;30.00;;;;;;5171029;27;20025;-61
2021/12/15 07:23:33;;;;;;;;;;;23.10;29.90;;;;;;5166874;27;19933;-53
2021/12/15 07:25:59;;;;;;;;;;;23.10;30.00;;;;;;5164956;27;20377;-54
2021/12/15 07:28:25;;;;;;;;;;;23.10;30.00;;;;;;5171451;27;19923;-57
2021/12/15 07:30:50;;;;;;;;;;;22.80;30.30;;;;;;5165647;27;19926;-57
2021/12/15 07:33:16;;;;;;;;;;;23.00;30.10;;;;;;5165497;27;19930;-53
2021/12/15 07:35:42;;;;;;;;;;;23.10;30.00;;;;;;5170726;27;19926;-58
2021/12/15 07:38:08;;;;;;;;;;;23.10;30.00;;;;;;5147178;27;19923;-57
2021/12/15 07:40:34;;;;;;;;;;;23.00;30.10;;;;;;5146403;27;19949;-57
2021/12/15 07:43:07;;;;;;;;;;;23.10;30.10;;;;;;5168227;27;19977;-55
2021/12/15 07:45:34;;;;;;;;;;;23.00;30.10;;;;;;5164832;27;19960;-55
2021/12/15 07:48:01;;;;;;;;;;;23.10;30.00;;;;;;5169769;27;19926;-52
2021/12/15 07:50:27;;;;;;;;;;;23.10;30.00;;;;;;5165006;27;20057;-61
2021/12/15 07:52:53;;;;;;;;;;;23.10;29.90;;;;;;5165473;27;20006;-54
2021/12/15 07:55:19;;;;;;;;;;;22.90;30.20;;;;;;5170244;27;20437;-55
2021/12/15 07:57:45;;;;;;;;;;;23.20;29.90;;;;;;5164914;27;19923;-56
2021/12/15 08:00:11;;;;;;;;;;;23.20;29.80;;;;;;5164575;27;20539;-55
2021/12/15 08:02:37;;;;;;;;;;;23.20;29.80;;;;;;5165431;27;20029;-55
2021/12/15 08:05:03;;;;;;;;;;;23.10;29.90;;;;;;5164979;27;19931;-55
2021/12/15 08:07:28;;;;;;;;;;;23.00;29.90;;;;;;5170352;27;20397;-60
2021/12/15 08:09:54;;;;;;;;;;;23.20;29.70;;;;;;5146015;27;19930;-55
2021/12/15 08:12:20;;;;;;;;;;;23.10;29.80;;;;;;5145994;27;19971;-61
2021/12/15 08:14:46;;;;;;;;;;;23.10;29.80;;;;;;5170337;27;20477;-54
2021/12/15 08:17:11;;;;;;;;;;;23.00;29.90;;;;;;5164393;27;20000;-54
2021/12/15 08:19:37;;;;;;;;;;;23.20;29.70;;;;;;5164970;27;20470;-60
2021/12/15 08:22:03;;;;;;;;;;;22.80;30.20;;;;;;5169529;27;19927;-55
2021/12/15 08:24:29;;;;;;;;;;;23.00;30.00;;;;;;5164543;27;19927;-52
2021/12/15 08:26:54;;;;;;;;;;;23.10;29.80;;;;;;5169466;27;19926;-57
2021/12/15 08:29:20;;;;;;;;;;;23.10;29.80;;;;;;5165100;27;19923;-52
2021/12/15 08:31:46;;;;;;;;;;;23.00;29.70;;;;;;5165187;27;19929;-62
2021/12/15 08:34:12;;;;;;;;;;;23.00;29.70;;;;;;5169566;27;19970;-52
2021/12/15 08:36:38;;;;;;;;;;;23.10;29.60;;;;;;5163960;27;19923;-59
2021/12/15 08:39:04;;;;;;;;;;;23.00;29.60;;;;;;5163726;27;20699;-56
2021/12/15 08:41:30;;;;;;;;;;;22.80;30.00;;;;;;5169754;27;20400;-54
2021/12/15 08:43:56;;;;;;;;;;;22.90;29.70;;;;;;5164026;27;20296;-55
2021/12/15 08:46:23;;;;;;;;;;;23.10;29.40;;;;;;5166568;27;19927;-57
2021/12/15 08:48:49;;;;;;;;;;;23.10;29.50;;;;;;5167566;27;20156;-56
2021/12/15 08:51:15;;;;;;;;;;;23.10;29.30;;;;;;5164046;27;19927;-55
2021/12/15 08:53:41;;;;;;;;;;;23.10;29.30;;;;;;5168944;27;19929;-52
2021/12/15 08:56:07;;;;;;;;;;;23.20;29.10;;;;;;5163605;27;19978;-57
2021/12/15 08:58:33;;;;;;;;;;;23.10;29.20;;;;;;5126040;27;19930;-54
2021/12/15 09:01:00;;;;;;;;;;;23.00;29.20;;;;;;5169434;27;19923;-54
2021/12/15 09:03:26;;;;;;;;;;;23.20;29.10;;;;;;5163811;27;20027;-60
2021/12/15 09:05:52;;;;;;;;;;;23.00;29.20;;;;;;5163403;27;20391;-56
2021/12/15 09:08:18;;;;;;;;;;;22.90;29.40;;;;;;5168823;27;20043;-53
2021/12/15 09:10:45;;;;;;;;;;;23.10;29.20;;;;;;5163184;27;19923;-58
2021/12/15 09:13:11;;;;;;;;;;;23.10;29.10;;;;;;5168907;27;19927;-56
2021/12/15 09:15:37;;;;;;;;;;;22.90;29.30;;;;;;5162932;27;20036;-56
2021/12/15 09:18:03;;;;;;;;;;;23.00;29.20;;;;;;5163080;27;19927;-53
2021/12/15 09:20:29;;;;;;;;;;;23.00;29.10;;;;;;5168962;27;19941;-59
2021/12/15 09:22:55;;;;;;;;;;;23.10;29.00;;;;;;5162930;27;19937;-53
2021/12/15 09:25:21;;;;;;;;;;;23.00;29.10;;;;;;5164113;27;19922;-61
2021/12/15 09:27:47;;;;;;;;;;;23.00;29.00;;;;;;5169029;27;19930;-57
2021/12/15 09:30:14;;;;;;;;;;;22.90;29.20;;;;;;5163074;27;19977;-52
2021/12/15 09:32:40;;;;;;;;;;;23.00;29.00;;;;;;5168239;27;20379;-51
2021/12/15 09:35:06;;;;;;;;;;;23.20;28.80;;;;;;5163175;27;19929;-56
2021/12/15 09:37:32;;;;;;;;;;;23.00;29.00;;;;;;5163244;27;19929;-52
2021/12/15 09:39:57;;;;;;;;;;;23.10;29.00;;;;;;5168351;27;20301;-55
2021/12/15 09:42:30;;;;;;;;;;;23.20;28.90;;;;;;5163131;27;19931;-58
2021/12/15 09:45:18;;;;;;;;;;;23.10;28.90;;;;;;5162542;27;19923;-56
2021/12/15 10:17:43;;;;;;;;;;;23.00;28.70;;;;;;5162360;27;20309;-52
2021/12/15 10:20:09;;;;;;;;;;;23.10;28.60;;;;;;5162540;27;20006;-57
2021/12/15 10:25:07;;;;;;;;;;;23.10;28.60;;;;;;5161969;27;19927;-54
2021/12/15 10:27:35;;;;;;;;;;;23.20;28.50;;;;;;5162165;27;19929;-64
2021/12/15 10:30:23;;;;;;;;;;;22.80;28.80;;;;;;5167169;27;19931;-54
2021/12/15 10:32:52;;;;;;;;;;;22.80;28.80;;;;;;5162485;27;19927;-54
2021/12/15 10:35:19;;;;;;;;;;;23.00;28.50;;;;;;5162201;27;19929;-52
2021/12/15 10:38:04;;;;;;;;;;;23.10;28.50;;;;;;5168086;27;19923;-57
2021/12/15 10:40:29;;;;;;;;;;;22.40;29.40;;;;;;5162288;27;19951;-57
2021/12/15 10:43:02;;;;;;;;;;;22.80;28.80;;;;;;5161894;27;20159;-53
2021/12/15 10:45:32;;;;;;;;;;;22.90;28.70;;;;;;5183408;27;19923;-53
2021/12/15 10:47:58;;;;;;;;;;;23.00;28.60;;;;;;5161409;27;19970;-53
2021/12/15 10:50:24;;;;;;;;;;;23.10;28.50;;;;;;5162297;27;19929;-61
2021/12/15 10:52:57;;;;;;;;;;;23.00;28.60;;;;;;5167927;27;20441;-57
2021/12/15 10:55:32;;;;;;;;;;;22.80;28.90;;;;;;5162158;27;19929;-54
2021/12/15 10:58:00;;;;;;;;;;;23.00;28.70;;;;;;5164441;27;20006;-59
2021/12/15 11:00:26;;;;;;;;;;;23.00;28.60;;;;;;5166078;27;19926;-55
2021/12/15 11:02:51;;;;;;;;;;;23.00;28.60;;;;;;5161823;27;19945;-54
2021/12/15 11:05:18;;;;;;;;;;;23.00;28.50;;;;;;5148563;27;20281;-53
2021/12/15 11:07:47;;;;;;;;;;;22.90;28.70;;;;;;5161700;27;20430;-56
2021/12/15 11:10:13;;;;;;;;;;;23.00;28.60;;;;;;5162426;27;19923;-60
2021/12/15 11:12:43;;;;;;;;;;;23.00;28.50;;;;;;5167415;27;19946;-53
2021/12/15 11:15:16;;;;;;;;;;;23.00;28.60;;;;;;5161934;27;19927;-53
2021/12/15 11:17:43;;;;;;;;;;;23.10;28.50;;;;;;5161819;27;19926;-51
2021/12/15 11:20:09;;;;;;;;;;;23.20;28.30;;;;;;5167468;27;20284;-58
2021/12/15 11:22:36;;;;;;;;;;;23.10;28.40;;;;;;5165176;27;19927;-55
2021/12/15 11:25:03;;;;;;;;;;;22.90;28.60;;;;;;5168262;27;20393;-56
2021/12/15 11:27:29;;;;;;;;;;;23.00;28.50;;;;;;5168913;27;19922;-55
2021/12/15 11:29:55;;;;;;;;;;;23.10;28.40;;;;;;5165888;27;19923;-55
2021/12/15 11:32:40;;;;;;;;;;;23.10;28.40;;;;;;5170732;27;19926;-57
2021/12/15 11:35:26;;;;;;;;;;;23.00;28.50;;;;;;5165538;27;19923;-55
2021/12/15 11:37:57;;;;;;;;;;;23.20;28.30;;;;;;5166353;27;19937;-59
2021/12/15 11:40:42;;;;;;;;;;;22.90;28.70;;;;;;5170415;27;19930;-54
2021/12/15 11:43:09;;;;;;;;;;;22.80;28.70;;;;;;5170210;27;20395;-53
2021/12/15 11:45:38;;;;;;;;;;;23.10;28.50;;;;;;5165155;27;19922;-63
2021/12/15 11:48:11;;;;;;;;;;;23.00;28.50;;;;;;5170696;27;20375;-56
2021/12/15 11:50:40;;;;;;;;;;;22.80;28.70;;;;;;5165639;27;19929;-53
2021/12/15 11:53:06;;;;;;;;;;;23.00;28.50;;;;;;5164837;27;20342;-58
2021/12/15 11:55:33;;;;;;;;;;;23.10;28.30;;;;;;5152141;27;19927;-58
2021/12/15 11:57:59;;;;;;;;;;;23.00;28.40;;;;;;5146339;27;19927;-52
2021/12/15 12:00:26;;;;;;;;;;;23.10;28.40;;;;;;5165071;27;19938;-61
2021/12/15 12:02:54;;;;;;;;;;;23.00;28.40;;;;;;5170072;27;19933;-52
2021/12/15 12:05:25;;;;;;;;;;;22.90;28.50;;;;;;5165046;27;19926;-48
2021/12/15 12:07:54;;;;;;;;;;;23.10;28.40;;;;;;5165138;27;20670;-59
2021/12/15 12:10:24;;;;;;;;;;;23.00;28.50;;;;;;5170260;27;19944;-51
2021/12/15 12:12:54;;;;;;;;;;;23.00;28.60;;;;;;5164866;27;19923;-59
2021/12/15 12:18:04;;;;;;;;;;;23.10;28.40;;;;;;5205911;27;20284;-62
2021/12/15 12:20:30;;;;;;;;;;;23.20;28.30;;;;;;5198580;27;20434;-55
2021/12/15 12:22:57;;;;;;;;;;;22.60;29.00;;;;;;5184516;27;20429;-55
2021/12/15 12:25:24;;;;;;;;;;;22.90;28.70;;;;;;5179274;27;20010;-53
2021/12/15 12:27:50;;;;;;;;;;;23.00;28.50;;;;;;5178999;27;19933;-54
2021/12/15 12:30:20;;;;;;;;;;;23.20;28.30;;;;;;5165884;27;19927;-60
2021/12/15 12:32:46;;;;;;;;;;;23.00;28.40;;;;;;5179578;27;19922;-56
2021/12/15 12:35:12;;;;;;;;;;;22.80;28.70;;;;;;5179002;27;20004;-58
2021/12/15 12:37:38;;;;;;;;;;;23.00;28.50;;;;;;5165349;27;19923;-54
2021/12/15 12:40:17;;;;;;;;;;;23.00;28.50;;;;;;5159636;27;20329;-56
2021/12/15 12:42:43;;;;;;;;;;;23.00;28.50;;;;;;5179057;27;20393;-48
2021/12/15 12:45:26;;;;;;;;;;;23.00;28.40;;;;;;5184169;27;19934;-64
2021/12/15 12:48:25;;;;;;;;;;;22.80;28.80;;;;;;5178723;27;19929;-54
2021/12/15 12:59:45;;;;;;;;;;;22.80;28.60;;;;;;5099074;28;20022;-52
2021/12/15 13:02:38;;;;;;;;;;;22.90;28.60;;;;;;5152108;27;20638;-60
2021/12/15 13:05:04;;;;;;;;;;;23.00;28.40;;;;;;5183976;27;19923;-55
2021/12/15 13:07:45;;;;;;;;;;;23.00;28.50;;;;;;5178399;27;19923;-55
2021/12/15 13:10:11;;;;;;;;;;;23.10;28.30;;;;;;5178928;27;20478;-56
2021/12/15 13:12:39;;;;;;;;;;;22.90;28.60;;;;;;5183612;27;19923;-58
2021/12/15 13:15:05;;;;;;;;;;;23.00;28.40;;;;;;5178148;27;19926;-60
2021/12/15 13:17:37;;;;;;;;;;;23.00;28.40;;;;;;5159050;27;20141;-57
2021/12/15 13:20:04;;;;;;;;;;;22.80;28.80;;;;;;5184091;27;19932;-54
2021/12/15 13:30:51;;;;;;;;;;;23.00;28.50;;;;;;5160119;27;20342;-62
2021/12/15 13:33:29;;;;;;;;;;;23.00;28.50;;;;;;5163841;27;20374;-53
2021/12/15 13:35:55;;;;;;;;;;;22.90;28.60;;;;;;5169275;27;19949;-63
2021/12/15 13:38:22;;;;;;;;;;;23.00;28.50;;;;;;5165051;27;20373;-58
2021/12/15 13:41:06;;;;;;;;;;;22.80;28.80;;;;;;5163907;27;20342;-55
2021/12/15 13:43:49;;;;;;;;;;;22.90;28.70;;;;;;5151348;27;19982;-55
2021/12/15 13:46:33;;;;;;;;;;;23.00;28.40;;;;;;5164025;27;19923;-55
2021/12/15 13:49:00;;;;;;;;;;;23.00;28.50;;;;;;5163656;27;19961;-57
2021/12/15 13:51:45;;;;;;;;;;;23.00;28.50;;;;;;5169020;27;19926;-57
2021/12/15 13:54:29;;;;;;;;;;;23.00;28.40;;;;;;5163441;27;20039;-58
2021/12/15 13:56:56;;;;;;;;;;;23.10;28.30;;;;;;5163804;27;20361;-49
2021/12/15 13:59:29;;;;;;;;;;;23.10;28.30;;;;;;5150369;27;20366;-65
2021/12/15 14:02:10;;;;;;;;;;;23.10;28.40;;;;;;5164047;27;20374;-56
2021/12/15 14:04:39;;;;;;;;;;;22.50;29.20;;;;;;5163425;27;19938;-54
2021/12/15 14:07:24;;;;;;;;;;;22.70;28.80;;;;;;5168708;27;19929;-52
2021/12/15 14:09:49;;;;;;;;;;;22.90;28.50;;;;;;5163112;27;19931;-61
2021/12/15 14:12:15;;;;;;;;;;;22.90;28.60;;;;;;5162844;27;20006;-56
2021/12/15 14:14:44;;;;;;;;;;;22.90;28.60;;;;;;5169248;27;19927;-55
2021/12/15 14:17:10;;;;;;;;;;;22.90;28.70;;;;;;5163300;27;20033;-52
2021/12/15 14:19:36;;;;;;;;;;;23.00;28.50;;;;;;5144199;27;19930;-60
2021/12/15 14:22:04;;;;;;;;;;;23.00;28.50;;;;;;5168645;27;20002;-55
2021/12/15 14:24:30;;;;;;;;;;;22.80;28.80;;;;;;5143126;27;19927;-50
2021/12/15 14:26:56;;;;;;;;;;;23.00;28.60;;;;;;5166755;27;20008;-61
2021/12/15 14:29:23;;;;;;;;;;;23.00;28.60;;;;;;5164438;27;19942;-56
2021/12/15 14:31:50;;;;;;;;;;;22.80;28.90;;;;;;5162946;27;19974;-54
2021/12/15 14:34:23;;;;;;;;;;;22.90;28.70;;;;;;5169096;27;19929;-63
2021/12/15 14:36:50;;;;;;;;;;;22.90;28.70;;;;;;5163491;27;19926;-57
2021/12/15 14:39:17;;;;;;;;;;;22.70;29.10;;;;;;5162150;27;19923;-55
2021/12/15 14:41:43;;;;;;;;;;;22.80;28.80;;;;;;5168065;27;20414;-51
2021/12/15 14:44:22;;;;;;;;;;;22.90;28.80;;;;;;5162610;27;19922;-62
2021/12/15 14:46:53;;;;;;;;;;;22.90;28.70;;;;;;5162509;27;19922;-59
2021/12/15 14:49:23;;;;;;;;;;;22.70;29.10;;;;;;5167777;27;20010;-53
2021/12/15 14:51:49;;;;;;;;;;;22.90;28.80;;;;;;5162967;27;19927;-52
2021/12/15 14:54:16;;;;;;;;;;;23.00;28.60;;;;;;5162601;27;20348;-62
2021/12/15 14:56:50;;;;;;;;;;;23.00;28.60;;;;;;5168295;27;19929;-54
2021/12/15 14:59:17;;;;;;;;;;;22.80;28.90;;;;;;5162661;27;19922;-57
2021/12/15 15:01:44;;;;;;;;;;;23.00;28.70;;;;;;5167626;27;19936;-56
2021/12/15 15:04:12;;;;;;;;;;;23.10;28.60;;;;;;5163097;27;20279;-53
2021/12/15 15:06:38;;;;;;;;;;;23.00;28.60;;;;;;5162064;27;19948;-57
2021/12/15 15:09:10;;;;;;;;;;;23.10;28.50;;;;;;5167993;27;19931;-53
2021/12/15 15:11:36;;;;;;;;;;;23.00;28.70;;;;;;5162595;27;19922;-63
2021/12/15 15:14:02;;;;;;;;;;;22.90;28.70;;;;;;5162534;27;19930;-57
2021/12/15 15:16:33;;;;;;;;;;;22.80;28.90;;;;;;5167802;27;19958;-53
2021/12/15 15:19:15;;;;;;;;;;;23.00;28.60;;;;;;5162195;27;19926;-61
2021/12/15 15:21:41;;;;;;;;;;;22.90;28.60;;;;;;5161811;27;19963;-57
2021/12/15 15:24:07;;;;;;;;;;;22.80;28.80;;;;;;5167229;27;20347;-55
2021/12/15 15:26:33;;;;;;;;;;;22.90;28.60;;;;;;5161732;27;19923;-56
2021/12/15 15:28:58;;;;;;;;;;;23.00;28.60;;;;;;5164093;27;19934;-56
2021/12/15 15:31:25;;;;;;;;;;;22.90;28.70;;;;;;5166331;27;19930;-60
2021/12/15 15:33:51;;;;;;;;;;;23.00;28.50;;;;;;5142505;27;19923;-57
2021/12/15 15:36:19;;;;;;;;;;;22.80;28.80;;;;;;5167516;27;19923;-54
2021/12/15 15:38:48;;;;;;;;;;;23.00;28.60;;;;;;5161749;27;20397;-59
2021/12/15 15:41:15;;;;;;;;;;;22.90;28.60;;;;;;5161472;27;19966;-52
2021/12/15 15:43:43;;;;;;;;;;;23.00;28.50;;;;;;5167130;27;19923;-62
2021/12/15 15:46:15;;;;;;;;;;;22.80;28.70;;;;;;5162065;27;19923;-57
2021/12/15 15:48:41;;;;;;;;;;;22.90;28.70;;;;;;5161990;27;19931;-54
2021/12/15 15:51:09;;;;;;;;;;;23.00;28.60;;;;;;5167286;27;20047;-56
2021/12/15 15:53:35;;;;;;;;;;;22.90;28.60;;;;;;5161817;27;20038;-51
2021/12/15 15:56:19;;;;;;;;;;;22.90;28.60;;;;;;5164416;27;19956;-59